createdAt,value
2022-11-28T00:00:51.531Z,101371.03
2022-11-28T00:04:00.493Z,101371.03
2022-11-28T00:07:11.130Z,101367.91
2022-11-28T00:10:19.459Z,101354.59
2022-11-28T00:13:28.056Z,101374.03
2022-11-28T00:16:43.465Z,101379.34
2022-11-28T00:19:45.479Z,101378.69
2022-11-28T00:23:00.504Z,101375.00
2022-11-28T00:26:06.778Z,101371.31
2022-11-28T00:29:21.462Z,101369.69
2022-11-28T00:32:30.044Z,101374.78
2022-11-28T00:35:38.489Z,101373.53
2022-11-28T00:38:53.492Z,101379.87
2022-11-28T00:42:08.470Z,101380.91
2022-11-28T00:45:17.485Z,101381.50
2022-11-28T00:48:26.522Z,101379.44
2022-11-28T00:51:37.561Z,101384.31
2022-11-28T00:54:59.454Z,101380.84
2022-11-28T00:58:14.500Z,101380.00
2022-11-28T01:01:29.546Z,101383.50
2022-11-28T01:04:44.630Z,101383.13
2022-11-28T01:07:53.432Z,101372.19
2022-11-28T01:11:09.483Z,101387.25
2022-11-28T01:14:12.641Z,101389.47
2022-11-28T01:17:27.466Z,101388.44
2022-11-28T01:20:29.919Z,101381.50
2022-11-28T01:23:44.486Z,101377.09
2022-11-28T01:26:59.476Z,101378.69
2022-11-28T01:30:01.534Z,101371.78
2022-11-28T01:33:16.467Z,101373.38
2022-11-28T01:36:19.405Z,101376.03
2022-11-28T01:39:34.480Z,101372.34
2022-11-28T01:42:42.568Z,101369.91
2022-11-28T01:45:58.477Z,101366.66
2022-11-28T01:49:22.512Z,101365.66
2022-11-28T01:52:31.103Z,101350.72
2022-11-28T01:56:22.491Z,101352.59
2022-11-28T01:59:34.483Z,101353.19
2022-11-28T02:03:00.486Z,101326.84
2022-11-28T02:06:02.910Z,101328.09
2022-11-28T02:09:22.501Z,101324.06
2022-11-28T02:12:40.376Z,101330.62
2022-11-28T02:15:48.551Z,101330.62
2022-11-28T02:19:12.177Z,101332.47
2022-11-28T02:22:51.484Z,101321.03
2022-11-28T02:26:31.492Z,101328.97
2022-11-28T02:29:58.837Z,101325.31
2022-11-28T02:33:32.468Z,101318.13
2022-11-28T02:36:57.499Z,101306.72
2022-11-28T02:40:39.484Z,101314.69
2022-11-28T02:44:04.452Z,101310.41
2022-11-28T02:47:32.501Z,101311.66
2022-11-28T02:50:47.937Z,101309.00
2022-11-28T02:54:03.488Z,101296.53
2022-11-28T02:57:25.458Z,101293.06
2022-11-28T03:00:37.826Z,101292.06
2022-11-28T03:04:22.469Z,101293.06
2022-11-28T03:07:31.129Z,101292.25
2022-11-28T03:10:56.483Z,101292.25
2022-11-28T03:14:18.500Z,101295.97
2022-11-28T03:17:54.813Z,101289.47
2022-11-28T03:21:32.475Z,101289.00
2022-11-28T03:24:48.921Z,101283.50
2022-11-28T03:28:26.486Z,101281.88
2022-11-28T03:31:49.524Z,101272.31
2022-11-28T03:35:23.449Z,101272.06
2022-11-28T03:38:44.474Z,101264.09
2022-11-28T03:41:59.200Z,101263.72
2022-11-28T03:45:27.479Z,101263.38
2022-11-28T03:48:41.838Z,101256.00
2022-11-28T03:52:04.488Z,101229.63
2022-11-28T03:55:34.650Z,101246.28
2022-11-28T03:59:01.368Z,101239.34
2022-11-28T04:02:48.485Z,101223.84
2022-11-28T04:06:23.472Z,101223.25
2022-11-28T04:09:36.305Z,101223.25
2022-11-28T04:12:55.455Z,101226.75
2022-11-28T04:16:07.122Z,101213.69
2022-11-28T04:19:30.479Z,101220.03
2022-11-28T04:22:52.466Z,101207.22
2022-11-28T04:26:01.542Z,101214.56
2022-11-28T04:29:20.491Z,101217.22
2022-11-28T04:32:31.531Z,101209.72
2022-11-28T04:35:51.509Z,101207.09
2022-11-28T04:38:54.146Z,101209.16
2022-11-28T04:42:17.468Z,101208.56
2022-11-28T04:45:46.495Z,101213.25
2022-11-28T04:48:55.084Z,101223.75
2022-11-28T04:52:17.451Z,101216.81
2022-11-28T04:55:39.461Z,101215.19
2022-11-28T04:58:50.058Z,101206.63
2022-11-28T05:02:08.552Z,101214.81
2022-11-28T05:05:20.485Z,101204.22
2022-11-28T05:08:29.049Z,101211.94
2022-11-28T05:11:43.468Z,101206.03
2022-11-28T05:14:52.100Z,101208.69
2022-11-28T05:18:00.503Z,101218.72
2022-11-28T05:21:09.100Z,101216.50
2022-11-28T05:24:17.475Z,101215.47
2022-11-28T05:27:26.072Z,101207.91
2022-11-28T05:30:40.482Z,101218.06
2022-11-28T05:33:49.116Z,101219.09
2022-11-28T05:37:04.490Z,101225.19
2022-11-28T05:40:13.456Z,101212.97
2022-11-28T05:43:22.065Z,101223.00
2022-11-28T05:46:30.461Z,101229.13
2022-11-28T05:49:39.154Z,101225.66
2022-11-28T05:52:54.453Z,101235.06
2022-11-28T05:56:19.440Z,101236.34
2022-11-28T05:59:41.698Z,101240.00
2022-11-28T06:03:01.206Z,101255.91
2022-11-28T06:06:19.440Z,101245.09
2022-11-28T06:09:25.649Z,101220.47
2022-11-28T06:12:40.437Z,101242.22
2022-11-28T06:15:50.460Z,101237.09
2022-11-28T06:19:02.257Z,101236.03
2022-11-28T06:22:17.441Z,101241.78
2022-11-28T06:25:32.438Z,101238.34
2022-11-28T06:28:41.493Z,101236.78
2022-11-28T06:31:49.498Z,101238.59
2022-11-28T06:35:04.482Z,101244.72
2022-11-28T06:38:11.413Z,101245.53
2022-11-28T06:41:29.472Z,101241.47
2022-11-28T06:44:44.462Z,101243.91
2022-11-28T06:47:46.335Z,101249.63
2022-11-28T06:51:10.448Z,101246.41
2022-11-28T06:54:12.476Z,101257.81
2022-11-28T06:57:27.430Z,101244.47
2022-11-28T07:00:37.897Z,101264.84
2022-11-28T07:03:53.447Z,101259.47
2022-11-28T07:07:02.012Z,101257.31
2022-11-28T07:10:18.847Z,101267.50
2022-11-28T07:13:21.432Z,101245.16
2022-11-28T07:16:39.678Z,101267.34
2022-11-28T07:19:41.929Z,101263.53
2022-11-28T07:22:57.458Z,101263.72
2022-11-28T07:26:07.121Z,101267.19
2022-11-28T07:29:23.456Z,101266.69
2022-11-28T07:32:31.999Z,101257.47
2022-11-28T07:35:46.452Z,101258.06
2022-11-28T07:38:57.770Z,101244.88
2022-11-28T07:42:12.490Z,101264.13
2022-11-28T07:45:14.581Z,101255.13
2022-11-28T07:48:29.466Z,101248.19
2022-11-28T07:51:38.053Z,101248.34
2022-11-28T07:54:46.454Z,101232.56
2022-11-28T07:58:08.472Z,101232.94
2022-11-28T08:01:22.526Z,101234.78
2022-11-28T08:04:40.500Z,101235.50
2022-11-28T08:07:53.146Z,101233.09
2022-11-28T08:11:11.447Z,101236.69
2022-11-28T08:14:20.073Z,101233.16
2022-11-28T08:17:28.482Z,101226.50
2022-11-28T08:20:43.479Z,101231.97
2022-11-28T08:24:00.539Z,101221.94
2022-11-28T08:27:18.893Z,101212.72
2022-11-28T08:30:28.140Z,101216.69
2022-11-28T08:33:37.464Z,101231.22
2022-11-28T08:36:52.434Z,101228.78
2022-11-28T08:40:04.029Z,101238.47
2022-11-28T08:43:13.498Z,101244.56
2022-11-28T08:46:29.486Z,101257.75
2022-11-28T08:49:38.428Z,101247.00
2022-11-28T08:52:53.516Z,101250.06
2022-11-28T08:56:02.612Z,101244.41
2022-11-28T08:59:17.744Z,101246.97
2022-11-28T09:02:32.424Z,101244.78
2022-11-28T09:05:34.817Z,101245.50
2022-11-28T09:08:50.632Z,101238.13
2022-11-28T09:12:06.457Z,101242.84
2022-11-28T09:15:21.430Z,101225.16
2022-11-28T09:18:42.693Z,101234.19
2022-11-28T09:21:57.631Z,101219.97
2022-11-28T09:25:06.558Z,101223.56
2022-11-28T09:28:15.095Z,101214.22
2022-11-28T09:31:25.516Z,101222.47
2022-11-28T09:34:40.424Z,101217.16
2022-11-28T09:37:42.434Z,101222.91
2022-11-28T09:40:59.329Z,101214.25
2022-11-28T09:44:26.462Z,101213.91
2022-11-28T09:47:37.633Z,101212.66
2022-11-28T09:50:53.556Z,101211.19
2022-11-28T09:54:27.934Z,101199.37
2022-11-28T09:57:47.674Z,101196.94
2022-11-28T10:01:31.521Z,101186.88
2022-11-28T10:04:41.629Z,101190.50
2022-11-28T10:08:16.455Z,101186.00
2022-11-28T10:12:05.483Z,101183.66
2022-11-28T10:15:32.744Z,101186.69
2022-11-28T10:19:25.606Z,101175.69
2022-11-28T10:22:45.758Z,101175.09
2022-11-28T10:26:18.718Z,101175.00
2022-11-28T10:29:29.574Z,101170.41
2022-11-28T10:32:51.463Z,101171.22
2022-11-28T10:35:58.815Z,101161.41
2022-11-28T10:39:19.521Z,101156.44
2022-11-28T10:42:38.422Z,101158.75
2022-11-28T10:46:10.826Z,101158.81
2022-11-28T10:49:31.450Z,101150.66
2022-11-28T10:53:07.433Z,101143.56
2022-11-28T10:56:25.404Z,101140.44
2022-11-28T11:00:02.430Z,101140.00
2022-11-28T11:03:15.559Z,101125.34
2022-11-28T11:06:53.871Z,101125.13
2022-11-28T11:10:01.178Z,101125.00
2022-11-28T11:13:25.471Z,101120.75
2022-11-28T11:16:49.539Z,101119.50
2022-11-28T11:19:58.416Z,101126.41
2022-11-28T11:23:32.742Z,101121.09
2022-11-28T11:26:53.408Z,101123.19
2022-11-28T11:30:23.451Z,101118.00
2022-11-28T11:33:37.158Z,101120.66
2022-11-28T11:36:45.431Z,101122.72
2022-11-28T11:39:54.210Z,101112.81
2022-11-28T11:43:06.741Z,101118.47
2022-11-28T11:46:17.365Z,101110.59
2022-11-28T11:49:44.782Z,101110.47
2022-11-28T11:53:08.426Z,101108.50
2022-11-28T11:56:17.960Z,101103.31
2022-11-28T11:59:38.429Z,101110.72
2022-11-28T12:02:58.525Z,101104.94
2022-11-28T12:06:39.666Z,101097.06
2022-11-28T12:09:49.462Z,101100.53
2022-11-28T12:13:05.433Z,101097.56
2022-11-28T12:16:46.763Z,101100.78
2022-11-28T12:20:28.446Z,101094.91
2022-11-28T12:24:09.615Z,101085.53
2022-11-28T12:27:35.136Z,101087.72
2022-11-28T12:31:25.598Z,101070.28
2022-11-28T12:35:07.173Z,101088.06
2022-11-28T12:38:47.487Z,101079.97
2022-11-28T12:42:30.421Z,101073.03
2022-11-28T12:45:47.036Z,101079.75
2022-11-28T12:49:17.437Z,101077.78
2022-11-28T12:52:42.136Z,101067.53
2022-11-28T12:55:53.428Z,101069.22
2022-11-28T12:59:25.043Z,101070.97
2022-11-28T13:03:10.548Z,101065.66
2022-11-28T13:06:19.109Z,101052.38
2022-11-28T13:09:42.015Z,101058.03
2022-11-28T13:13:07.459Z,101064.03
2022-11-28T13:17:03.635Z,101058.84
2022-11-28T13:20:42.452Z,101056.63
2022-11-28T13:24:19.024Z,101051.00
2022-11-28T13:27:40.929Z,101051.69
2022-11-28T13:31:26.488Z,101054.56
2022-11-28T13:34:36.198Z,101044.19
2022-11-28T13:49:29.416Z,101052.28
2022-11-28T13:52:44.159Z,101046.72
2022-11-28T13:55:55.403Z,101041.97
2022-11-28T13:59:27.426Z,101052.16
2022-11-28T14:02:45.733Z,101052.16
2022-11-28T14:06:03.396Z,101051.69
2022-11-28T14:09:12.097Z,101053.06
2022-11-28T14:12:28.526Z,101052.94
2022-11-28T14:15:58.452Z,101046.81
2022-11-28T14:19:34.641Z,101042.06
2022-11-28T14:23:16.167Z,101026.75
2022-11-28T14:26:46.425Z,101038.72
2022-11-28T14:30:03.407Z,101032.59
2022-11-28T14:33:45.453Z,101033.16
2022-11-28T14:37:26.432Z,101033.47
2022-11-28T14:40:56.673Z,101030.47
2022-11-28T14:44:52.470Z,101030.81
2022-11-28T14:48:19.499Z,101033.53
2022-11-28T14:51:44.244Z,101033.19
2022-11-28T14:55:00.498Z,101031.91
2022-11-28T14:58:04.181Z,101032.12
2022-11-28T15:01:49.437Z,101028.09
2022-11-28T15:05:10.168Z,100998.09
2022-11-28T15:08:53.469Z,101030.78
2022-11-28T15:12:30.796Z,101025.41
2022-11-28T15:15:54.419Z,101021.50
2022-11-28T15:19:43.391Z,101029.47
2022-11-28T15:22:45.338Z,101031.38
2022-11-28T15:26:02.391Z,101042.56
2022-11-28T15:29:24.420Z,101042.41
2022-11-28T15:32:34.315Z,101047.13
2022-11-28T15:36:08.418Z,101045.38
2022-11-28T15:39:25.317Z,101041.78
2022-11-28T15:42:42.396Z,101044.19
2022-11-28T15:45:49.200Z,101052.59
2022-11-28T15:49:05.422Z,101048.16
2022-11-28T15:52:17.821Z,101050.37
2022-11-28T15:55:37.442Z,101050.81
2022-11-28T15:58:53.410Z,101048.47
2022-11-28T16:02:28.417Z,101062.72
2022-11-28T16:05:45.091Z,101055.66
2022-11-28T16:09:01.379Z,101065.22
2022-11-28T16:12:14.411Z,101051.94
2022-11-28T16:15:31.406Z,101065.22
2022-11-28T16:18:51.419Z,101058.75
2022-11-28T16:22:03.432Z,101057.75
2022-11-28T16:25:31.699Z,101066.03
2022-11-28T16:28:41.778Z,101071.56
2022-11-28T16:31:51.463Z,101049.47
2022-11-28T16:35:07.908Z,101067.16
2022-11-28T16:38:28.384Z,101058.97
2022-11-28T16:41:49.846Z,101064.47
2022-11-28T16:45:08.168Z,101067.16
2022-11-28T16:48:23.434Z,101063.94
2022-11-28T16:51:34.438Z,101059.94
2022-11-28T16:54:49.598Z,101063.22
2022-11-28T16:58:09.578Z,101058.81
2022-11-28T17:01:31.512Z,101064.97
2022-11-28T17:04:46.579Z,101065.41
2022-11-28T17:08:01.456Z,101063.75
2022-11-28T17:11:11.382Z,101064.22
2022-11-28T17:14:26.713Z,101059.34
2022-11-28T17:17:42.803Z,101064.69
2022-11-28T17:20:51.739Z,101048.50
2022-11-28T17:24:03.384Z,101062.47
2022-11-28T17:27:19.267Z,101056.22
2022-11-28T17:30:28.798Z,101062.69
2022-11-28T17:33:44.946Z,101062.09
2022-11-28T17:37:00.824Z,101062.75
2022-11-28T17:40:15.618Z,101066.81
2022-11-28T17:43:24.426Z,101067.06
2022-11-28T17:46:33.681Z,101069.12
2022-11-28T17:49:49.105Z,101073.00
2022-11-28T17:53:04.871Z,101067.53
2022-11-28T17:56:13.994Z,101069.00
2022-11-28T17:59:24.679Z,101072.06
2022-11-28T18:02:40.107Z,101067.34
2022-11-28T18:05:56.951Z,101070.59
2022-11-28T18:09:00.517Z,101065.31
2022-11-28T18:12:15.808Z,101065.94
2022-11-28T18:15:24.384Z,101068.59
2022-11-28T18:18:33.511Z,101069.22
2022-11-28T18:21:42.835Z,101070.00
2022-11-28T18:24:52.369Z,101073.50
2022-11-28T18:28:07.944Z,101074.13
2022-11-28T18:31:11.233Z,101070.31
2022-11-28T18:34:26.703Z,101068.47
2022-11-28T18:37:42.804Z,101073.75
2022-11-28T18:40:51.805Z,101057.91
2022-11-28T18:44:02.266Z,101071.91
2022-11-28T18:47:10.842Z,101076.22
2022-11-28T18:50:18.992Z,101071.13
2022-11-28T18:53:27.805Z,101083.97
2022-11-28T18:56:36.341Z,101072.19
2022-11-28T18:59:55.309Z,101074.84
2022-11-28T19:03:13.271Z,101061.47
2022-11-28T19:06:22.585Z,101072.00
2022-11-28T19:09:37.840Z,101070.81
2022-11-28T19:12:53.853Z,101066.94
2022-11-28T19:16:13.851Z,101068.81
2022-11-28T19:19:28.386Z,101064.31
2022-11-28T19:22:35.000Z,101072.88
2022-11-28T19:25:50.376Z,101071.66
2022-11-28T19:28:59.827Z,101073.69
2022-11-28T19:32:10.153Z,101067.19
2022-11-28T19:35:25.867Z,101066.00
2022-11-28T19:38:45.802Z,101070.06
2022-11-28T19:41:58.017Z,101076.97
2022-11-28T19:45:14.725Z,101066.22
2022-11-28T19:48:23.856Z,101075.78
2022-11-28T19:51:32.442Z,101068.66
2022-11-28T19:54:42.012Z,101074.75
2022-11-28T19:57:58.371Z,101079.84
2022-11-28T20:01:25.879Z,101075.78
2022-11-28T20:04:35.383Z,101082.06
2022-11-28T20:07:55.510Z,101082.66
2022-11-28T20:11:19.338Z,101085.94
2022-11-28T20:14:28.869Z,101070.25
2022-11-28T20:17:43.760Z,101068.44
2022-11-28T20:20:52.354Z,101071.94
2022-11-28T20:24:11.790Z,101069.28
2022-11-28T20:27:26.369Z,101067.06
2022-11-28T20:30:28.654Z,101068.06
2022-11-28T20:33:43.820Z,101070.09
2022-11-28T20:36:53.229Z,101068.50
2022-11-28T20:40:08.338Z,101072.53
2022-11-28T20:43:18.638Z,101068.06
2022-11-28T20:46:32.789Z,101071.75
2022-11-28T20:49:48.801Z,101054.69
2022-11-28T20:52:51.206Z,101068.69
2022-11-28T20:56:13.341Z,101070.94
2022-11-28T20:59:23.731Z,101074.19
2022-11-28T21:02:45.821Z,101071.94
2022-11-28T21:06:01.375Z,101068.91
2022-11-28T21:09:12.646Z,101077.00
2022-11-28T21:12:27.346Z,101081.06
2022-11-28T21:15:40.624Z,101084.72
2022-11-28T21:18:55.358Z,101082.66
2022-11-28T21:22:10.370Z,101065.81
2022-11-28T21:25:26.118Z,101074.09
2022-11-28T21:28:37.799Z,101091.16
2022-11-28T21:31:52.504Z,101086.44
2022-11-28T21:35:04.162Z,101080.94
2022-11-28T21:38:14.513Z,101078.28
2022-11-28T21:41:24.079Z,101081.53
2022-11-28T21:44:39.376Z,101078.03
2022-11-28T21:47:41.298Z,101079.88
2022-11-28T21:50:57.345Z,101084.16
2022-11-28T21:54:05.382Z,101089.84
2022-11-28T21:57:13.983Z,101087.59
2022-11-28T22:00:52.213Z,101087.75
2022-11-28T22:04:04.341Z,101084.94
2022-11-28T22:07:19.405Z,101085.34
2022-11-28T22:10:34.334Z,101095.69
2022-11-28T22:13:49.352Z,101093.88
2022-11-28T22:16:58.017Z,101066.88
2022-11-28T22:20:15.346Z,101093.06
2022-11-28T22:23:30.338Z,101089.19
2022-11-28T22:26:45.345Z,101088.16
2022-11-28T22:30:00.363Z,101089.19
2022-11-28T22:33:02.252Z,101093.47
2022-11-28T22:36:27.347Z,101086.97
2022-11-28T22:39:36.372Z,101079.03
2022-11-28T22:42:44.912Z,101085.72
2022-11-28T22:46:02.374Z,101094.28
2022-11-28T22:49:18.481Z,101083.28
2022-11-28T22:52:27.355Z,101086.97
2022-11-28T22:55:42.338Z,101085.16
2022-11-28T22:58:58.344Z,101087.56
2022-11-28T23:02:20.447Z,101096.28
2022-11-28T23:05:22.621Z,101091.84
2022-11-28T23:08:38.348Z,101086.41
2022-11-28T23:11:53.330Z,101083.56
2022-11-28T23:15:01.340Z,101085.63
2022-11-28T23:18:16.350Z,101085.84
2022-11-28T23:21:19.510Z,101085.59
2022-11-28T23:24:34.370Z,101086.81
2022-11-28T23:27:43.332Z,101090.66
2022-11-28T23:30:58.347Z,101090.25
2022-11-28T23:34:01.472Z,101085.41
2022-11-28T23:37:16.347Z,101090.53
2022-11-28T23:40:25.072Z,101085.63
2022-11-28T23:43:33.345Z,101091.09
2022-11-28T23:46:42.935Z,101093.94
2022-11-28T23:49:51.351Z,101086.41
2022-11-28T23:52:59.971Z,101086.19
2022-11-28T23:56:11.332Z,101074.63
2022-11-28T23:59:26.332Z,101078.47
